sensor_id;sensor_type;location;lat;lon;timestamp;P1;durP1;ratioP1;P2;durP2;ratioP2
37483;SDS011;23337;52.212;9.926;2022-08-01T00:00:28;4.57;;;3.63;;
37483;SDS011;23337;52.212;9.926;2022-08-01T00:02:54;4.07;;;3.50;;
37483;SDS011;23337;52.212;9.926;2022-08-01T00:05:20;4.40;;;3.53;;
37483;SDS011;23337;52.212;9.926;2022-08-01T00:07:46;3.40;;;3.10;;
37483;SDS011;23337;52.212;9.926;2022-08-01T00:10:13;3.63;;;3.33;;
37483;SDS011;23337;52.212;9.926;2022-08-01T00:12:39;3.90;;;3.50;;
37483;SDS011;23337;52.212;9.926;2022-08-01T00:15:06;4.70;;;2.77;;
37483;SDS011;23337;52.212;9.926;2022-08-01T00:17:33;3.70;;;3.13;;
37483;SDS011;23337;52.212;9.926;2022-08-01T00:19:59;3.20;;;2.87;;
37483;SDS011;23337;52.212;9.926;2022-08-01T00:22:25;3.57;;;2.83;;
37483;SDS011;23337;52.212;9.926;2022-08-01T00:24:51;3.20;;;2.90;;
37483;SDS011;23337;52.212;9.926;2022-08-01T00:27:17;3.50;;;3.20;;
37483;SDS011;23337;52.212;9.926;2022-08-01T00:29:43;4.67;;;3.67;;
37483;SDS011;23337;52.212;9.926;2022-08-01T00:32:09;7.00;;;3.97;;
37483;SDS011;23337;52.212;9.926;2022-08-01T00:34:35;4.50;;;4.13;;
37483;SDS011;23337;52.212;9.926;2022-08-01T00:37:01;4.77;;;4.37;;
37483;SDS011;23337;52.212;9.926;2022-08-01T00:39:27;4.73;;;4.30;;
37483;SDS011;23337;52.212;9.926;2022-08-01T00:41:53;5.03;;;3.73;;
37483;SDS011;23337;52.212;9.926;2022-08-01T00:44:19;5.07;;;4.30;;
37483;SDS011;23337;52.212;9.926;2022-08-01T00:46:45;4.87;;;4.10;;
37483;SDS011;23337;52.212;9.926;2022-08-01T00:49:11;5.03;;;4.30;;
37483;SDS011;23337;52.212;9.926;2022-08-01T00:51:37;4.90;;;4.23;;
37483;SDS011;23337;52.212;9.926;2022-08-01T00:54:03;5.53;;;5.07;;
37483;SDS011;23337;52.212;9.926;2022-08-01T00:56:32;4.53;;;3.67;;
37483;SDS011;23337;52.212;9.926;2022-08-01T00:58:58;4.70;;;4.17;;
37483;SDS011;23337;52.212;9.926;2022-08-01T01:01:24;5.63;;;4.17;;
37483;SDS011;23337;52.212;9.926;2022-08-01T01:03:51;6.80;;;3.50;;
37483;SDS011;23337;52.212;9.926;2022-08-01T01:11:40;8.27;;;4.23;;
37483;SDS011;23337;52.212;9.926;2022-08-01T01:14:09;5.57;;;3.83;;
37483;SDS011;23337;52.212;9.926;2022-08-01T01:16:36;6.73;;;3.97;;
37483;SDS011;23337;52.212;9.926;2022-08-01T01:19:04;4.30;;;3.80;;
37483;SDS011;23337;52.212;9.926;2022-08-01T01:24:28;4.73;;;4.10;;
37483;SDS011;23337;52.212;9.926;2022-08-01T01:26:58;3.90;;;3.27;;
37483;SDS011;23337;52.212;9.926;2022-08-01T01:29:28;3.47;;;3.17;;
37483;SDS011;23337;52.212;9.926;2022-08-01T01:34:22;3.33;;;2.37;;
37483;SDS011;23337;52.212;9.926;2022-08-01T01:36:49;2.87;;;2.40;;
37483;SDS011;23337;52.212;9.926;2022-08-01T01:39:17;3.67;;;2.23;;
37483;SDS011;23337;52.212;9.926;2022-08-01T01:41:44;3.70;;;2.60;;
37483;SDS011;23337;52.212;9.926;2022-08-01T01:44:11;4.57;;;2.30;;
37483;SDS011;23337;52.212;9.926;2022-08-01T01:46:38;2.13;;;1.93;;
37483;SDS011;23337;52.212;9.926;2022-08-01T01:49:04;2.00;;;1.90;;
37483;SDS011;23337;52.212;9.926;2022-08-01T01:51:31;5.23;;;2.20;;
37483;SDS011;23337;52.212;9.926;2022-08-01T01:53:57;2.43;;;1.70;;
37483;SDS011;23337;52.212;9.926;2022-08-01T01:56:24;1.90;;;1.80;;
37483;SDS011;23337;52.212;9.926;2022-08-01T01:58:52;3.77;;;1.77;;
37483;SDS011;23337;52.212;9.926;2022-08-01T02:01:18;1.93;;;1.43;;
37483;SDS011;23337;52.212;9.926;2022-08-01T02:03:44;3.07;;;1.67;;
37483;SDS011;23337;52.212;9.926;2022-08-01T02:06:11;2.57;;;2.37;;
37483;SDS011;23337;52.212;9.926;2022-08-01T02:08:38;1.87;;;1.77;;
37483;SDS011;23337;52.212;9.926;2022-08-01T02:11:06;1.57;;;1.43;;
37483;SDS011;23337;52.212;9.926;2022-08-01T02:13:55;2.53;;;1.87;;
37483;SDS011;23337;52.212;9.926;2022-08-01T02:16:23;2.23;;;1.73;;
37483;SDS011;23337;52.212;9.926;2022-08-01T02:18:50;4.00;;;1.97;;
37483;SDS011;23337;52.212;9.926;2022-08-01T02:21:19;4.00;;;1.90;;
37483;SDS011;23337;52.212;9.926;2022-08-01T02:23:46;2.27;;;1.97;;
37483;SDS011;23337;52.212;9.926;2022-08-01T02:26:13;3.10;;;1.80;;
37483;SDS011;23337;52.212;9.926;2022-08-01T02:28:45;2.10;;;1.90;;
37483;SDS011;23337;52.212;9.926;2022-08-01T02:31:13;3.50;;;2.13;;
37483;SDS011;23337;52.212;9.926;2022-08-01T02:33:46;2.53;;;2.13;;
37483;SDS011;23337;52.212;9.926;2022-08-01T02:36:13;2.50;;;2.23;;
37483;SDS011;23337;52.212;9.926;2022-08-01T02:38:41;2.83;;;1.97;;
37483;SDS011;23337;52.212;9.926;2022-08-01T02:41:08;2.97;;;2.30;;
37483;SDS011;23337;52.212;9.926;2022-08-01T02:43:36;5.27;;;2.40;;
37483;SDS011;23337;52.212;9.926;2022-08-01T02:46:03;2.17;;;1.97;;
37483;SDS011;23337;52.212;9.926;2022-08-01T02:48:30;2.93;;;2.60;;
37483;SDS011;23337;52.212;9.926;2022-08-01T02:50:58;2.30;;;1.20;;
37483;SDS011;23337;52.212;9.926;2022-08-01T02:53:25;1.97;;;1.10;;
37483;SDS011;23337;52.212;9.926;2022-08-01T02:55:52;1.33;;;1.10;;
37483;SDS011;23337;52.212;9.926;2022-08-01T02:58:19;1.83;;;1.13;;
37483;SDS011;23337;52.212;9.926;2022-08-01T03:00:48;1.40;;;1.30;;
37483;SDS011;23337;52.212;9.926;2022-08-01T03:03:15;2.73;;;1.17;;
37483;SDS011;23337;52.212;9.926;2022-08-01T03:05:42;1.33;;;0.97;;
37483;SDS011;23337;52.212;9.926;2022-08-01T03:08:09;2.80;;;1.67;;
37483;SDS011;23337;52.212;9.926;2022-08-01T03:10:37;1.90;;;1.47;;
37483;SDS011;23337;52.212;9.926;2022-08-01T03:13:04;2.20;;;1.00;;
37483;SDS011;23337;52.212;9.926;2022-08-01T03:15:32;3.20;;;1.17;;
37483;SDS011;23337;52.212;9.926;2022-08-01T03:17:59;2.20;;;1.70;;
37483;SDS011;23337;52.212;9.926;2022-08-01T03:20:26;1.60;;;1.50;;
37483;SDS011;23337;52.212;9.926;2022-08-01T03:22:52;2.67;;;1.60;;
37483;SDS011;23337;52.212;9.926;2022-08-01T03:25:19;2.13;;;1.67;;
37483;SDS011;23337;52.212;9.926;2022-08-01T03:27:48;2.07;;;1.30;;
37483;SDS011;23337;52.212;9.926;2022-08-01T03:30:15;2.03;;;1.23;;
37483;SDS011;23337;52.212;9.926;2022-08-01T03:32:42;3.10;;;1.73;;
37483;SDS011;23337;52.212;9.926;2022-08-01T03:35:08;2.90;;;1.40;;
37483;SDS011;23337;52.212;9.926;2022-08-01T03:37:36;3.80;;;2.07;;
37483;SDS011;23337;52.212;9.926;2022-08-01T03:42:34;3.10;;;2.07;;
37483;SDS011;23337;52.212;9.926;2022-08-01T03:45:03;3.43;;;1.97;;
37483;SDS011;23337;52.212;9.926;2022-08-01T03:47:31;1.83;;;1.60;;
37483;SDS011;23337;52.212;9.926;2022-08-01T03:49:58;2.10;;;1.90;;
37483;SDS011;23337;52.212;9.926;2022-08-01T03:52:27;2.60;;;2.40;;
37483;SDS011;23337;52.212;9.926;2022-08-01T03:54:54;2.03;;;1.93;;
37483;SDS011;23337;52.212;9.926;2022-08-01T03:57:20;3.43;;;2.27;;
37483;SDS011;23337;52.212;9.926;2022-08-01T03:59:47;2.80;;;2.57;;
37483;SDS011;23337;52.212;9.926;2022-08-01T04:02:14;4.50;;;2.50;;
37483;SDS011;23337;52.212;9.926;2022-08-01T04:04:40;3.50;;;2.67;;
37483;SDS011;23337;52.212;9.926;2022-08-01T04:07:21;4.37;;;2.83;;
37483;SDS011;23337;52.212;9.926;2022-08-01T04:09:47;3.07;;;2.83;;
37483;SDS011;23337;52.212;9.926;2022-08-01T04:12:13;2.63;;;2.43;;
37483;SDS011;23337;52.212;9.926;2022-08-01T04:14:39;3.63;;;2.93;;
37483;SDS011;23337;52.212;9.926;2022-08-01T04:17:05;3.80;;;3.30;;
37483;SDS011;23337;52.212;9.926;2022-08-01T04:19:31;3.23;;;2.93;;
37483;SDS011;23337;52.212;9.926;2022-08-01T04:21:57;2.97;;;2.67;;
37483;SDS011;23337;52.212;9.926;2022-08-01T04:24:23;2.57;;;2.33;;
37483;SDS011;23337;52.212;9.926;2022-08-01T04:26:50;2.97;;;2.73;;
37483;SDS011;23337;52.212;9.926;2022-08-01T04:29:17;4.40;;;2.80;;
37483;SDS011;23337;52.212;9.926;2022-08-01T04:31:43;3.83;;;3.13;;
37483;SDS011;23337;52.212;9.926;2022-08-01T04:34:12;3.50;;;3.20;;
37483;SDS011;23337;52.212;9.926;2022-08-01T04:36:39;3.63;;;3.33;;
37483;SDS011;23337;52.212;9.926;2022-08-01T04:39:07;3.77;;;2.70;;
37483;SDS011;23337;52.212;9.926;2022-08-01T04:41:34;4.93;;;3.33;;
37483;SDS011;23337;52.212;9.926;2022-08-01T04:44:01;3.97;;;3.67;;
37483;SDS011;23337;52.212;9.926;2022-08-01T04:46:28;3.87;;;3.57;;
37483;SDS011;23337;52.212;9.926;2022-08-01T04:48:55;4.43;;;4.00;;
37483;SDS011;23337;52.212;9.926;2022-08-01T04:51:21;5.10;;;4.67;;
37483;SDS011;23337;52.212;9.926;2022-08-01T04:53:47;5.40;;;4.70;;
37483;SDS011;23337;52.212;9.926;2022-08-01T04:56:13;5.37;;;4.87;;
37483;SDS011;23337;52.212;9.926;2022-08-01T04:58:43;5.83;;;5.33;;
37483;SDS011;23337;52.212;9.926;2022-08-01T05:01:09;5.20;;;4.77;;
37483;SDS011;23337;52.212;9.926;2022-08-01T05:03:36;4.83;;;4.27;;
37483;SDS011;23337;52.212;9.926;2022-08-01T05:06:02;5.97;;;4.67;;
37483;SDS011;23337;52.212;9.926;2022-08-01T05:08:28;4.40;;;4.00;;
37483;SDS011;23337;52.212;9.926;2022-08-01T05:10:54;4.27;;;3.83;;
37483;SDS011;23337;52.212;9.926;2022-08-01T05:13:20;4.80;;;3.70;;
37483;SDS011;23337;52.212;9.926;2022-08-01T05:15:46;4.07;;;3.43;;
37483;SDS011;23337;52.212;9.926;2022-08-01T05:18:12;5.27;;;3.03;;
37483;SDS011;23337;52.212;9.926;2022-08-01T05:20:38;3.57;;;3.07;;
37483;SDS011;23337;52.212;9.926;2022-08-01T05:23:04;4.17;;;3.47;;
37483;SDS011;23337;52.212;9.926;2022-08-01T05:25:30;3.67;;;3.37;;
37483;SDS011;23337;52.212;9.926;2022-08-01T05:27:56;3.67;;;3.37;;
37483;SDS011;23337;52.212;9.926;2022-08-01T05:30:22;6.03;;;3.20;;
37483;SDS011;23337;52.212;9.926;2022-08-01T05:32:48;3.83;;;3.17;;
37483;SDS011;23337;52.212;9.926;2022-08-01T05:35:14;4.43;;;4.03;;
37483;SDS011;23337;52.212;9.926;2022-08-01T05:37:40;4.60;;;4.20;;
37483;SDS011;23337;52.212;9.926;2022-08-01T05:40:06;4.47;;;4.07;;
37483;SDS011;23337;52.212;9.926;2022-08-01T05:42:32;3.40;;;3.03;;
37483;SDS011;23337;52.212;9.926;2022-08-01T05:44:58;3.60;;;3.30;;
37483;SDS011;23337;52.212;9.926;2022-08-01T05:47:24;3.50;;;3.20;;
37483;SDS011;23337;52.212;9.926;2022-08-01T05:49:50;3.10;;;2.90;;
37483;SDS011;23337;52.212;9.926;2022-08-01T05:52:16;5.47;;;2.40;;
37483;SDS011;23337;52.212;9.926;2022-08-01T05:54:42;1.40;;;1.30;;
37483;SDS011;23337;52.212;9.926;2022-08-01T05:57:08;1.10;;;1.00;;
37483;SDS011;23337;52.212;9.926;2022-08-01T05:59:34;0.70;;;0.60;;
37483;SDS011;23337;52.212;9.926;2022-08-01T06:02:00;0.50;;;0.50;;
37483;SDS011;23337;52.212;9.926;2022-08-01T06:04:26;0.73;;;0.73;;
37483;SDS011;23337;52.212;9.926;2022-08-01T06:06:52;1.53;;;0.83;;
37483;SDS011;23337;52.212;9.926;2022-08-01T06:09:18;0.70;;;0.70;;
37483;SDS011;23337;52.212;9.926;2022-08-01T06:11:44;0.70;;;0.70;;
37483;SDS011;23337;52.212;9.926;2022-08-01T06:14:10;2.90;;;1.63;;
37483;SDS011;23337;52.212;9.926;2022-08-01T06:16:36;1.70;;;0.90;;
37483;SDS011;23337;52.212;9.926;2022-08-01T06:19:02;1.33;;;0.73;;
37483;SDS011;23337;52.212;9.926;2022-08-01T06:23:59;2.27;;;1.23;;
37483;SDS011;23337;52.212;9.926;2022-08-01T06:26:25;1.20;;;1.10;;
37483;SDS011;23337;52.212;9.926;2022-08-01T06:28:51;2.03;;;1.50;;
37483;SDS011;23337;52.212;9.926;2022-08-01T06:31:17;1.97;;;1.23;;
37483;SDS011;23337;52.212;9.926;2022-08-01T06:33:42;2.80;;;1.77;;
37483;SDS011;23337;52.212;9.926;2022-08-01T06:36:09;1.83;;;1.73;;
37483;SDS011;23337;52.212;9.926;2022-08-01T06:38:35;1.53;;;1.27;;
37483;SDS011;23337;52.212;9.926;2022-08-01T06:41:01;1.80;;;1.30;;
37483;SDS011;23337;52.212;9.926;2022-08-01T06:43:27;1.87;;;1.70;;
37483;SDS011;23337;52.212;9.926;2022-08-01T06:45:53;2.10;;;1.90;;
37483;SDS011;23337;52.212;9.926;2022-08-01T06:48:19;3.57;;;2.17;;
37483;SDS011;23337;52.212;9.926;2022-08-01T06:50:45;2.27;;;2.07;;
37483;SDS011;23337;52.212;9.926;2022-08-01T06:53:11;3.37;;;2.57;;
37483;SDS011;23337;52.212;9.926;2022-08-01T06:55:37;5.50;;;2.80;;
37483;SDS011;23337;52.212;9.926;2022-08-01T06:58:03;3.37;;;2.60;;
37483;SDS011;23337;52.212;9.926;2022-08-01T07:00:29;3.20;;;2.90;;
37483;SDS011;23337;52.212;9.926;2022-08-01T07:02:56;3.40;;;3.10;;
37483;SDS011;23337;52.212;9.926;2022-08-01T07:05:23;3.13;;;2.63;;
37483;SDS011;23337;52.212;9.926;2022-08-01T07:07:49;2.97;;;2.77;;
37483;SDS011;23337;52.212;9.926;2022-08-01T07:10:16;2.87;;;2.67;;
37483;SDS011;23337;52.212;9.926;2022-08-01T07:12:42;2.67;;;2.47;;
37483;SDS011;23337;52.212;9.926;2022-08-01T07:15:11;2.57;;;1.90;;
37483;SDS011;23337;52.212;9.926;2022-08-01T07:17:41;0.90;;;0.90;;
37483;SDS011;23337;52.212;9.926;2022-08-01T07:20:10;1.20;;;1.10;;
37483;SDS011;23337;52.212;9.926;2022-08-01T07:22:37;1.60;;;1.50;;
37483;SDS011;23337;52.212;9.926;2022-08-01T07:25:06;1.50;;;1.40;;
37483;SDS011;23337;52.212;9.926;2022-08-01T07:27:32;1.60;;;1.50;;
37483;SDS011;23337;52.212;9.926;2022-08-01T07:29:58;1.30;;;1.20;;
37483;SDS011;23337;52.212;9.926;2022-08-01T07:32:25;1.50;;;1.40;;
37483;SDS011;23337;52.212;9.926;2022-08-01T07:34:51;1.53;;;1.43;;
37483;SDS011;23337;52.212;9.926;2022-08-01T07:37:17;1.83;;;1.40;;
37483;SDS011;23337;52.212;9.926;2022-08-01T07:39:43;2.17;;;1.57;;
37483;SDS011;23337;52.212;9.926;2022-08-01T07:42:09;1.70;;;1.30;;
37483;SDS011;23337;52.212;9.926;2022-08-01T07:44:35;1.50;;;1.40;;
37483;SDS011;23337;52.212;9.926;2022-08-01T07:47:01;1.70;;;1.60;;
37483;SDS011;23337;52.212;9.926;2022-08-01T07:49:27;2.70;;;1.47;;
37483;SDS011;23337;52.212;9.926;2022-08-01T07:51:53;1.83;;;1.63;;
37483;SDS011;23337;52.212;9.926;2022-08-01T07:54:19;1.67;;;1.53;;
37483;SDS011;23337;52.212;9.926;2022-08-01T07:56:45;2.77;;;1.53;;
37483;SDS011;23337;52.212;9.926;2022-08-01T07:59:11;1.87;;;1.50;;
37483;SDS011;23337;52.212;9.926;2022-08-01T08:01:37;2.10;;;1.60;;
37483;SDS011;23337;52.212;9.926;2022-08-01T08:04:03;1.90;;;1.57;;
37483;SDS011;23337;52.212;9.926;2022-08-01T08:06:29;2.93;;;1.73;;
37483;SDS011;23337;52.212;9.926;2022-08-01T08:08:55;2.40;;;1.60;;
37483;SDS011;23337;52.212;9.926;2022-08-01T08:11:21;1.27;;;1.17;;
37483;SDS011;23337;52.212;9.926;2022-08-01T08:13:47;1.80;;;1.70;;
37483;SDS011;23337;52.212;9.926;2022-08-01T08:16:13;1.73;;;1.57;;
37483;SDS011;23337;52.212;9.926;2022-08-01T08:18:39;1.73;;;1.37;;
37483;SDS011;23337;52.212;9.926;2022-08-01T08:21:05;1.43;;;1.33;;
37483;SDS011;23337;52.212;9.926;2022-08-01T08:23:31;1.60;;;1.50;;
37483;SDS011;23337;52.212;9.926;2022-08-01T08:26:16;2.70;;;1.10;;
37483;SDS011;23337;52.212;9.926;2022-08-01T08:28:42;1.30;;;1.20;;
37483;SDS011;23337;52.212;9.926;2022-08-01T08:31:08;3.23;;;1.47;;
37483;SDS011;23337;52.212;9.926;2022-08-01T08:33:34;2.10;;;1.33;;
37483;SDS011;23337;52.212;9.926;2022-08-01T08:36:00;1.10;;;1.00;;
37483;SDS011;23337;52.212;9.926;2022-08-01T08:38:26;1.33;;;1.20;;
37483;SDS011;23337;52.212;9.926;2022-08-01T08:40:52;1.47;;;1.00;;
37483;SDS011;23337;52.212;9.926;2022-08-01T08:43:18;1.40;;;0.90;;
37483;SDS011;23337;52.212;9.926;2022-08-01T08:45:44;2.00;;;1.00;;
37483;SDS011;23337;52.212;9.926;2022-08-01T08:48:11;1.10;;;1.00;;
37483;SDS011;23337;52.212;9.926;2022-08-01T08:50:38;1.00;;;1.00;;
37483;SDS011;23337;52.212;9.926;2022-08-01T08:53:04;1.40;;;1.30;;
37483;SDS011;23337;52.212;9.926;2022-08-01T08:55:30;1.77;;;1.30;;
37483;SDS011;23337;52.212;9.926;2022-08-01T08:57:56;1.70;;;1.37;;
37483;SDS011;23337;52.212;9.926;2022-08-01T09:00:24;1.70;;;1.60;;
37483;SDS011;23337;52.212;9.926;2022-08-01T09:02:50;1.73;;;1.63;;
37483;SDS011;23337;52.212;9.926;2022-08-01T09:05:20;2.00;;;1.70;;
37483;SDS011;23337;52.212;9.926;2022-08-01T09:07:50;2.63;;;2.03;;
37483;SDS011;23337;52.212;9.926;2022-08-01T09:10:16;2.37;;;1.90;;
37483;SDS011;23337;52.212;9.926;2022-08-01T09:13:01;1.97;;;1.57;;
37483;SDS011;23337;52.212;9.926;2022-08-01T09:15:38;2.90;;;1.90;;
37483;SDS011;23337;52.212;9.926;2022-08-01T09:18:04;2.40;;;2.20;;
37483;SDS011;23337;52.212;9.926;2022-08-01T09:20:31;3.20;;;2.33;;
37483;SDS011;23337;52.212;9.926;2022-08-01T09:22:59;3.03;;;2.57;;
37483;SDS011;23337;52.212;9.926;2022-08-01T09:25:25;4.17;;;2.10;;
37483;SDS011;23337;52.212;9.926;2022-08-01T09:28:04;2.97;;;2.17;;
37483;SDS011;23337;52.212;9.926;2022-08-01T09:30:36;2.47;;;2.07;;
37483;SDS011;23337;52.212;9.926;2022-08-01T09:33:04;2.13;;;1.83;;
37483;SDS011;23337;52.212;9.926;2022-08-01T09:35:34;1.80;;;1.40;;
37483;SDS011;23337;52.212;9.926;2022-08-01T09:38:18;3.60;;;1.20;;
37483;SDS011;23337;52.212;9.926;2022-08-01T09:43:13;1.33;;;0.90;;
37483;SDS011;23337;52.212;9.926;2022-08-01T09:45:39;2.20;;;0.70;;
37483;SDS011;23337;52.212;9.926;2022-08-01T09:48:06;0.97;;;0.60;;
37483;SDS011;23337;52.212;9.926;2022-08-01T09:50:42;0.67;;;0.67;;
37483;SDS011;23337;52.212;9.926;2022-08-01T09:53:09;1.00;;;0.97;;
37483;SDS011;23337;52.212;9.926;2022-08-01T09:55:35;0.90;;;0.63;;
37483;SDS011;23337;52.212;9.926;2022-08-01T09:58:01;1.13;;;0.80;;
37483;SDS011;23337;52.212;9.926;2022-08-01T10:00:29;0.70;;;0.70;;
37483;SDS011;23337;52.212;9.926;2022-08-01T10:02:55;0.90;;;0.67;;
37483;SDS011;23337;52.212;9.926;2022-08-01T10:05:33;0.67;;;0.67;;
37483;SDS011;23337;52.212;9.926;2022-08-01T10:08:03;1.23;;;0.80;;
37483;SDS011;23337;52.212;9.926;2022-08-01T10:10:30;1.13;;;0.80;;
37483;SDS011;23337;52.212;9.926;2022-08-01T10:12:57;1.77;;;0.90;;
37483;SDS011;23337;52.212;9.926;2022-08-01T10:15:23;0.80;;;0.80;;
37483;SDS011;23337;52.212;9.926;2022-08-01T10:17:53;2.27;;;0.90;;
37483;SDS011;23337;52.212;9.926;2022-08-01T10:20:20;0.70;;;0.67;;
37483;SDS011;23337;52.212;9.926;2022-08-01T10:22:46;1.10;;;0.73;;
37483;SDS011;23337;52.212;9.926;2022-08-01T10:25:12;2.27;;;0.80;;
37483;SDS011;23337;52.212;9.926;2022-08-01T10:27:42;0.60;;;0.60;;
37483;SDS011;23337;52.212;9.926;2022-08-01T10:30:10;0.87;;;0.60;;
37483;SDS011;23337;52.212;9.926;2022-08-01T10:32:36;0.87;;;0.63;;
37483;SDS011;23337;52.212;9.926;2022-08-01T10:35:03;1.57;;;0.60;;
37483;SDS011;23337;52.212;9.926;2022-08-01T10:37:29;0.67;;;0.67;;
37483;SDS011;23337;52.212;9.926;2022-08-01T10:39:56;0.97;;;0.60;;
37483;SDS011;23337;52.212;9.926;2022-08-01T10:42:22;1.43;;;0.73;;
37483;SDS011;23337;52.212;9.926;2022-08-01T10:44:48;1.23;;;0.93;;
37483;SDS011;23337;52.212;9.926;2022-08-01T10:47:15;1.33;;;0.60;;
37483;SDS011;23337;52.212;9.926;2022-08-01T10:49:45;0.77;;;0.50;;
37483;SDS011;23337;52.212;9.926;2022-08-01T10:52:19;2.90;;;0.90;;
37483;SDS011;23337;52.212;9.926;2022-08-01T10:54:46;1.57;;;1.00;;
37483;SDS011;23337;52.212;9.926;2022-08-01T10:57:12;2.23;;;1.13;;
37483;SDS011;23337;52.212;9.926;2022-08-01T10:59:49;1.90;;;1.63;;
37483;SDS011;23337;52.212;9.926;2022-08-01T11:02:33;1.10;;;1.00;;
37483;SDS011;23337;52.212;9.926;2022-08-01T11:05:04;3.60;;;1.33;;
37483;SDS011;23337;52.212;9.926;2022-08-01T11:07:38;1.53;;;0.90;;
37483;SDS011;23337;52.212;9.926;2022-08-01T11:10:09;1.00;;;0.90;;
37483;SDS011;23337;52.212;9.926;2022-08-01T11:12:39;0.93;;;0.90;;
37483;SDS011;23337;52.212;9.926;2022-08-01T11:17:35;2.83;;;1.30;;
37483;SDS011;23337;52.212;9.926;2022-08-01T11:20:12;1.63;;;1.27;;
37483;SDS011;23337;52.212;9.926;2022-08-01T11:25:22;1.87;;;1.30;;
37483;SDS011;23337;52.212;9.926;2022-08-01T11:27:48;1.27;;;1.17;;
37483;SDS011;23337;52.212;9.926;2022-08-01T11:32:50;2.77;;;2.33;;
37483;SDS011;23337;52.212;9.926;2022-08-01T11:35:17;3.30;;;3.07;;
37483;SDS011;23337;52.212;9.926;2022-08-01T11:37:45;4.97;;;3.10;;
37483;SDS011;23337;52.212;9.926;2022-08-01T11:42:45;3.00;;;2.63;;
37483;SDS011;23337;52.212;9.926;2022-08-01T11:45:11;3.63;;;2.47;;
37483;SDS011;23337;52.212;9.926;2022-08-01T11:47:47;3.00;;;2.30;;
37483;SDS011;23337;52.212;9.926;2022-08-01T11:52:58;2.40;;;2.20;;
37483;SDS011;23337;52.212;9.926;2022-08-01T11:55:25;2.60;;;1.80;;
37483;SDS011;23337;52.212;9.926;2022-08-01T11:57:58;3.20;;;2.17;;
37483;SDS011;23337;52.212;9.926;2022-08-01T12:00:25;3.80;;;2.13;;
37483;SDS011;23337;52.212;9.926;2022-08-01T12:02:58;6.30;;;2.40;;
37483;SDS011;23337;52.212;9.926;2022-08-01T12:05:25;3.80;;;2.00;;
37483;SDS011;23337;52.212;9.926;2022-08-01T12:07:51;6.40;;;2.13;;
37483;SDS011;23337;52.212;9.926;2022-08-01T12:10:21;4.50;;;1.80;;
37483;SDS011;23337;52.212;9.926;2022-08-01T12:12:48;2.93;;;2.00;;
37483;SDS011;23337;52.212;9.926;2022-08-01T12:15:14;5.23;;;2.40;;
37483;SDS011;23337;52.212;9.926;2022-08-01T12:17:42;3.73;;;2.17;;
37483;SDS011;23337;52.212;9.926;2022-08-01T12:20:09;2.73;;;2.53;;
37483;SDS011;23337;52.212;9.926;2022-08-01T12:22:36;4.87;;;3.93;;
37483;SDS011;23337;52.212;9.926;2022-08-01T12:25:09;3.27;;;2.67;;
37483;SDS011;23337;52.212;9.926;2022-08-01T12:27:36;3.63;;;2.33;;
37483;SDS011;23337;52.212;9.926;2022-08-01T12:30:06;2.57;;;2.37;;
37483;SDS011;23337;52.212;9.926;2022-08-01T12:32:34;3.97;;;2.57;;
37483;SDS011;23337;52.212;9.926;2022-08-01T12:35:05;2.30;;;1.97;;
37483;SDS011;23337;52.212;9.926;2022-08-01T12:37:34;5.33;;;2.40;;
37483;SDS011;23337;52.212;9.926;2022-08-01T12:40:01;4.30;;;2.67;;
37483;SDS011;23337;52.212;9.926;2022-08-01T12:42:27;4.27;;;2.30;;
37483;SDS011;23337;52.212;9.926;2022-08-01T12:44:53;3.93;;;2.40;;
37483;SDS011;23337;52.212;9.926;2022-08-01T12:47:20;4.27;;;2.90;;
37483;SDS011;23337;52.212;9.926;2022-08-01T12:49:47;1.77;;;1.60;;
37483;SDS011;23337;52.212;9.926;2022-08-01T12:52:13;3.63;;;1.73;;
37483;SDS011;23337;52.212;9.926;2022-08-01T12:55:01;2.67;;;2.10;;
37483;SDS011;23337;52.212;9.926;2022-08-01T12:57:28;3.93;;;2.00;;
37483;SDS011;23337;52.212;9.926;2022-08-01T13:00:07;3.20;;;2.30;;
37483;SDS011;23337;52.212;9.926;2022-08-01T13:02:34;3.93;;;2.27;;
37483;SDS011;23337;52.212;9.926;2022-08-01T13:05:00;5.20;;;2.60;;
37483;SDS011;23337;52.212;9.926;2022-08-01T13:07:36;3.17;;;2.83;;
37483;SDS011;23337;52.212;9.926;2022-08-01T13:10:02;5.27;;;2.80;;
37483;SDS011;23337;52.212;9.926;2022-08-01T13:12:29;4.27;;;2.53;;
37483;SDS011;23337;52.212;9.926;2022-08-01T13:14:56;3.50;;;3.20;;
37483;SDS011;23337;52.212;9.926;2022-08-01T13:17:34;4.67;;;3.30;;
37483;SDS011;23337;52.212;9.926;2022-08-01T13:20:02;4.90;;;2.80;;
37483;SDS011;23337;52.212;9.926;2022-08-01T13:22:35;3.00;;;2.20;;
37483;SDS011;23337;52.212;9.926;2022-08-01T13:25:14;2.90;;;2.20;;
37483;SDS011;23337;52.212;9.926;2022-08-01T13:27:40;3.13;;;2.20;;
37483;SDS011;23337;52.212;9.926;2022-08-01T13:30:16;3.70;;;2.50;;
37483;SDS011;23337;52.212;9.926;2022-08-01T13:32:42;2.33;;;1.90;;
37483;SDS011;23337;52.212;9.926;2022-08-01T13:35:09;2.87;;;2.30;;
37483;SDS011;23337;52.212;9.926;2022-08-01T13:37:37;4.63;;;2.63;;
37483;SDS011;23337;52.212;9.926;2022-08-01T13:40:03;4.43;;;2.63;;
37483;SDS011;23337;52.212;9.926;2022-08-01T13:42:29;4.07;;;2.50;;
37483;SDS011;23337;52.212;9.926;2022-08-01T13:44:55;4.07;;;2.07;;
37483;SDS011;23337;52.212;9.926;2022-08-01T13:47:21;2.57;;;2.27;;
37483;SDS011;23337;52.212;9.926;2022-08-01T13:49:47;4.33;;;2.80;;
37483;SDS011;23337;52.212;9.926;2022-08-01T13:52:13;5.63;;;2.73;;
37483;SDS011;23337;52.212;9.926;2022-08-01T13:54:39;5.23;;;2.77;;
37483;SDS011;23337;52.212;9.926;2022-08-01T13:57:05;4.43;;;3.00;;
37483;SDS011;23337;52.212;9.926;2022-08-01T13:59:31;5.70;;;2.50;;
37483;SDS011;23337;52.212;9.926;2022-08-01T14:01:57;3.67;;;2.40;;
37483;SDS011;23337;52.212;9.926;2022-08-01T14:04:23;4.07;;;2.77;;
37483;SDS011;23337;52.212;9.926;2022-08-01T14:06:49;5.77;;;2.50;;
37483;SDS011;23337;52.212;9.926;2022-08-01T14:09:15;5.30;;;2.47;;
37483;SDS011;23337;52.212;9.926;2022-08-01T14:11:44;3.50;;;2.40;;
37483;SDS011;23337;52.212;9.926;2022-08-01T14:14:10;3.33;;;2.67;;
37483;SDS011;23337;52.212;9.926;2022-08-01T14:16:36;4.33;;;2.80;;
37483;SDS011;23337;52.212;9.926;2022-08-01T14:19:03;5.27;;;2.90;;
37483;SDS011;23337;52.212;9.926;2022-08-01T14:21:29;2.57;;;2.37;;
37483;SDS011;23337;52.212;9.926;2022-08-01T14:23:56;3.50;;;2.10;;
37483;SDS011;23337;52.212;9.926;2022-08-01T14:26:22;3.47;;;2.40;;
37483;SDS011;23337;52.212;9.926;2022-08-01T14:28:48;3.60;;;2.30;;
37483;SDS011;23337;52.212;9.926;2022-08-01T14:31:14;6.33;;;2.40;;
37483;SDS011;23337;52.212;9.926;2022-08-01T14:33:40;3.50;;;2.00;;
37483;SDS011;23337;52.212;9.926;2022-08-01T14:36:06;7.83;;;2.60;;
37483;SDS011;23337;52.212;9.926;2022-08-01T14:38:32;4.80;;;2.17;;
37483;SDS011;23337;52.212;9.926;2022-08-01T14:40:58;4.80;;;2.53;;
37483;SDS011;23337;52.212;9.926;2022-08-01T14:43:24;4.47;;;1.97;;
37483;SDS011;23337;52.212;9.926;2022-08-01T14:45:51;4.50;;;1.87;;
37483;SDS011;23337;52.212;9.926;2022-08-01T14:48:19;5.03;;;2.60;;
37483;SDS011;23337;52.212;9.926;2022-08-01T14:50:45;5.07;;;2.47;;
37483;SDS011;23337;52.212;9.926;2022-08-01T14:53:11;5.33;;;2.37;;
37483;SDS011;23337;52.212;9.926;2022-08-01T14:55:37;4.23;;;2.30;;
37483;SDS011;23337;52.212;9.926;2022-08-01T15:00:48;2.90;;;2.30;;
37483;SDS011;23337;52.212;9.926;2022-08-01T15:03:14;5.97;;;2.43;;
37483;SDS011;23337;52.212;9.926;2022-08-01T15:05:40;2.70;;;1.87;;
37483;SDS011;23337;52.212;9.926;2022-08-01T15:08:06;2.47;;;2.27;;
37483;SDS011;23337;52.212;9.926;2022-08-01T15:10:32;4.23;;;2.27;;
37483;SDS011;23337;52.212;9.926;2022-08-01T15:12:58;6.17;;;2.37;;
37483;SDS011;23337;52.212;9.926;2022-08-01T15:15:26;3.27;;;2.13;;
37483;SDS011;23337;52.212;9.926;2022-08-01T15:17:53;5.17;;;2.00;;
37483;SDS011;23337;52.212;9.926;2022-08-01T15:20:19;5.23;;;2.33;;
37483;SDS011;23337;52.212;9.926;2022-08-01T15:22:45;3.63;;;1.93;;